createdAt,value
2024-03-05T00:00:29.162Z,87.56882506815349
2024-03-05T00:03:24.685Z,87.37532069345947
2024-03-05T00:06:20.305Z,87.7449889560082
2024-03-05T00:09:15.810Z,88.24043619387464
2024-03-05T00:12:12.368Z,88.60224114145032
2024-03-05T00:15:08.932Z,90.31568972656858
2024-03-05T00:18:05.612Z,92.97148123517798
2024-03-05T00:21:01.067Z,96.19074035340716
2024-03-05T00:23:56.610Z,94.99433105153742
2024-03-05T00:26:54.149Z,91.85795483573126
2024-03-05T00:29:49.710Z,90.4554503002828
2024-03-05T00:32:45.308Z,89.03034946940441
2024-03-05T00:35:42.849Z,90.49781935211847
2024-03-05T00:38:39.379Z,90.1677905620694
2024-03-05T00:41:34.978Z,88.79273252125968
2024-03-05T00:44:31.557Z,89.79072752387711
2024-03-05T00:47:27.074Z,91.89245774925756
2024-03-05T00:50:23.654Z,92.93789347360827
2024-03-05T00:53:19.203Z,93.07650387252818
2024-03-05T00:56:14.767Z,93.25845633459224
2024-03-05T00:59:12.342Z,94.04478126459743
2024-03-05T01:02:07.954Z,95.01347545435225
2024-03-05T01:05:07.459Z,94.25731654334889
2024-03-05T01:08:04.055Z,95.11828877796171
2024-03-05T01:11:00.968Z,94.50002315310178
2024-03-05T01:13:56.222Z,93.61414236146463
2024-03-05T01:16:52.770Z,93.5461275067894
2024-03-05T01:19:48.275Z,93.75239730886717
2024-03-05T01:22:43.877Z,92.81185734007367
2024-03-05T01:25:42.409Z,92.66649871600504
2024-03-05T01:28:39.959Z,92.27372958361255
2024-03-05T01:31:35.513Z,93.10002171774596
2024-03-05T01:37:37.567Z,95.50853197965272
2024-03-05T01:40:33.088Z,97.06599469098487
2024-03-05T01:43:31.705Z,98.4896986214211
2024-03-05T01:46:29.273Z,99.37356481136871
2024-03-05T01:49:25.875Z,99.29772417123507
2024-03-05T01:52:23.384Z,97.91157325348927
2024-03-05T01:55:19.910Z,97.18612998055059
2024-03-05T01:58:18.515Z,97.06200249801789
2024-03-05T02:01:16.147Z,97.20208461615408
2024-03-05T02:04:15.583Z,97.22037063337397
2024-03-05T02:07:14.231Z,98.42643896810411
2024-03-05T02:10:10.666Z,99.56624106578097
2024-03-05T02:13:10.250Z,98.20613467122783
2024-03-05T02:16:06.809Z,98.6241681579149
2024-03-05T02:19:04.365Z,99.45883014686974
2024-03-05T02:22:02.950Z,99.07951597933389
2024-03-05T02:24:59.463Z,99.43233096399128
2024-03-05T02:27:56.035Z,99.11182934262006
2024-03-05T02:30:52.564Z,99.87564163162637
2024-03-05T02:33:49.106Z,100
2024-03-05T02:36:44.685Z,100
2024-03-05T02:39:40.259Z,100
2024-03-05T02:42:36.793Z,100
2024-03-05T02:45:32.382Z,100
2024-03-05T02:48:28.025Z,98.34592567347195
2024-03-05T02:51:24.564Z,95.138199427363
2024-03-05T02:54:20.055Z,95.77555690627064
2024-03-05T02:57:15.605Z,95.11720748244923
2024-03-05T03:00:20.647Z,93.42445511869391
2024-03-05T03:03:17.720Z,91.90561399675212
2024-03-05T03:06:16.292Z,93.22364476756125
2024-03-05T03:09:12.807Z,93.0787978816192
2024-03-05T03:12:14.420Z,95.02523692471242
2024-03-05T03:15:10.958Z,91.55066683399214
2024-03-05T03:18:07.600Z,92.70485519360658
2024-03-05T03:21:06.047Z,91.2284799248117
2024-03-05T03:24:01.599Z,91.84862714232614
2024-03-05T03:26:58.157Z,92.95009591022361
2024-03-05T03:29:53.815Z,93.24272023657798
2024-03-05T03:32:50.336Z,92.5903521237824
2024-03-05T03:35:46.840Z,95.0472367568929
2024-03-05T03:38:43.403Z,93.99223449125027
2024-03-05T03:41:40.951Z,93.11309458036648
2024-03-05T03:44:36.526Z,94.19572055808487
2024-03-05T03:47:32.086Z,94.79743865816826
2024-03-05T03:50:27.622Z,92.45231035504314
2024-03-05T03:53:23.209Z,96.0922804784508
2024-03-05T03:56:18.760Z,94.18704433455586
2024-03-05T03:59:15.331Z,94.46029353896635
2024-03-05T04:02:10.960Z,92.89337867310634
2024-03-05T04:05:10.410Z,91.47385863331328
2024-03-05T04:08:07.054Z,91.10216431039044
2024-03-05T04:11:04.624Z,91.84561748827521
2024-03-05T04:14:04.324Z,99.1507913932467
2024-03-05T04:17:01.667Z,94.36316521765588
2024-03-05T04:19:57.559Z,92.86774978024738
2024-03-05T04:22:54.841Z,97.69870657171987
2024-03-05T04:25:59.440Z,99.95242320089373
2024-03-05T04:29:02.032Z,96.86050442625951
2024-03-05T04:35:11.962Z,96.88485526511465
2024-03-05T04:38:08.480Z,100
2024-03-05T04:41:06.126Z,100
2024-03-05T04:44:02.639Z,100
2024-03-05T04:46:59.179Z,98.50818184709053
2024-03-05T04:49:55.735Z,100
2024-03-05T04:52:53.308Z,100
2024-03-05T04:55:49.829Z,97.4344815382253
2024-03-05T04:58:46.416Z,96.86602830361026
2024-03-05T05:01:41.967Z,97.4043873659851
2024-03-05T05:04:38.579Z,98.3971871992991
2024-03-05T05:07:35.126Z,99.54730535048395
2024-03-05T05:10:32.638Z,99.9989399189784
2024-03-05T05:13:28.259Z,99.25842050303352
2024-03-05T05:16:27.878Z,99.18467326498333
2024-03-05T05:19:26.406Z,99.63821481295459
2024-03-05T05:22:22.958Z,100
2024-03-05T05:25:20.480Z,99.50568507998565
2024-03-05T05:28:16.001Z,98.95192698840788
2024-03-05T05:31:24.529Z,95.32601987814945
2024-03-05T05:34:22.057Z,96.68065247150676
2024-03-05T05:37:18.600Z,94.46715788821864
2024-03-05T05:40:20.354Z,94.59679122180803
2024-03-05T05:43:20.772Z,92.45042696783004
2024-03-05T05:46:24.269Z,95.88726617307785
2024-03-05T05:49:22.012Z,100
2024-03-05T05:52:18.384Z,98.13437811565787
2024-03-05T05:55:17.100Z,97.67263105808524
2024-03-05T05:58:14.470Z,97.25345477185013
2024-03-05T06:01:15.429Z,96.64939003125644
2024-03-05T06:04:12.627Z,97.93478749385613
2024-03-05T06:07:11.849Z,94.9455141391077
2024-03-05T06:10:08.750Z,96.24032235022693
2024-03-05T06:13:04.238Z,97.20336414037489
2024-03-05T06:16:00.820Z,96.8666720788317
2024-03-05T06:18:57.324Z,97.76473157426695
2024-03-05T06:21:54.030Z,96.48414972060816
2024-03-05T06:24:49.509Z,97.77542903918948
2024-03-05T06:27:47.111Z,97.2143253320251
2024-03-05T06:30:49.606Z,93.82740299252289
2024-03-05T06:33:45.174Z,95.73901641008065
2024-03-05T06:36:42.723Z,98.3530504072808
2024-03-05T06:39:42.262Z,95.59690988870113
2024-03-05T06:42:41.832Z,94.1078628368434
2024-03-05T06:45:43.363Z,92.20268267082446
2024-03-05T06:48:47.916Z,91.88867677664034
2024-03-05T06:52:16.406Z,89.63815630752141
2024-03-05T06:55:48.406Z,85.41116279443668
2024-03-05T06:58:45.466Z,86.24616552835607
2024-03-05T07:01:41.074Z,84.24533864212988
2024-03-05T07:04:40.527Z,84.33111190091846
2024-03-05T07:07:36.100Z,84.750027732562
2024-03-05T07:10:35.757Z,85.33049081074371
2024-03-05T07:13:32.307Z,86.58316952808975
2024-03-05T07:16:32.743Z,86.87060867811266
2024-03-05T07:19:30.335Z,85.8839366477597
2024-03-05T07:22:28.841Z,85.96966663033648
2024-03-05T07:25:25.454Z,84.37919854968932
2024-03-05T07:28:21.954Z,83.62214969357734
2024-03-05T07:31:20.188Z,83.86825153897915
2024-03-05T07:34:16.079Z,84.36241757274827
2024-03-05T07:37:13.610Z,82.49309595691126
2024-03-05T07:40:21.200Z,80.29713357905233
2024-03-05T07:43:20.717Z,81.81317160401804
2024-03-05T07:46:18.370Z,80.67462711162163
2024-03-05T07:49:15.057Z,81.42684458491992
2024-03-05T07:52:10.394Z,81.52010280666553
2024-03-05T07:55:06.920Z,80.6333141415104
2024-03-05T07:58:04.506Z,80.56453380053073
2024-03-05T08:01:01.111Z,80.94950735490598
2024-03-05T08:03:57.629Z,79.92361656131442
2024-03-05T08:06:55.663Z,79.7828392518423
2024-03-05T08:09:54.741Z,78.32326226545024
2024-03-05T08:12:55.302Z,76.89866764629902
2024-03-05T08:15:50.825Z,76.16354836820368
2024-03-05T08:18:47.379Z,74.76659419257022
2024-03-05T08:21:43.958Z,73.85501389744456
2024-03-05T08:24:43.647Z,72.80250169750637
2024-03-05T08:27:43.087Z,74.41220689999732
2024-03-05T08:30:43.908Z,74.7410685366595
2024-03-05T08:33:39.174Z,75.35627523128765
2024-03-05T08:39:34.292Z,72.39215496872612
2024-03-05T08:42:31.852Z,71.83090609406594
2024-03-05T08:45:27.428Z,70.06162088387237
2024-03-05T08:48:23.976Z,68.72339747511023
2024-03-05T08:51:19.506Z,67.94776383073496
2024-03-05T08:54:17.818Z,68.26738031165131
2024-03-05T08:57:14.562Z,68.51603709186158
2024-03-05T09:00:28.214Z,66.9240165083252
2024-03-05T09:03:29.076Z,67.27060298969066
2024-03-05T09:06:24.246Z,66.52947031126837
2024-03-05T09:09:22.768Z,67.56077166312146
2024-03-05T09:12:19.375Z,68.26165378528722
2024-03-05T09:15:16.919Z,65.94562726860575
2024-03-05T09:18:15.183Z,66.94776956488022
2024-03-05T09:21:13.074Z,66.48467787267086
2024-03-05T09:24:08.597Z,65.0168116421527
2024-03-05T09:27:04.173Z,63.2894337175546
2024-03-05T09:30:01.742Z,63.247629788009974
2024-03-05T09:32:59.296Z,62.58974794344053
2024-03-05T09:35:58.834Z,61.95122817927401
2024-03-05T09:38:56.382Z,62.76293872803027
2024-03-05T09:41:53.933Z,62.77796248691545
2024-03-05T09:48:10.120Z,64.13749804799632
2024-03-05T09:51:11.245Z,64.47123971998471
2024-03-05T09:54:12.133Z,62.009772697619056
2024-03-05T09:57:09.654Z,60.72830617267698
2024-03-05T10:00:16.431Z,60.09041621122698
2024-03-05T10:03:11.776Z,61.16232590107805
2024-03-05T10:06:12.329Z,60.74004084499643
2024-03-05T10:09:10.864Z,61.43693139283171
2024-03-05T10:12:14.408Z,59.62713185370192
2024-03-05T10:15:12.961Z,59.28680103698602
2024-03-05T10:18:14.523Z,58.54156962710712
2024-03-05T10:21:20.201Z,54.72983291479435
2024-03-05T10:24:28.581Z,54.0015470280767
2024-03-05T10:27:29.119Z,49.99159768515845
2024-03-05T10:30:25.675Z,50.62810653679051
2024-03-05T10:33:28.223Z,50.34582125590632
2024-03-05T10:36:27.764Z,50.061584556109175
2024-03-05T10:39:29.183Z,49.85845303127037
2024-03-05T10:42:33.845Z,47.46280777239293
2024-03-05T10:45:33.433Z,46.797619463352206
2024-03-05T10:48:29.968Z,46.97707836416338
2024-03-05T10:51:31.513Z,45.991653754697836
2024-03-05T10:54:33.582Z,43.92554509613962
2024-03-05T10:57:30.597Z,42.71516593900118
2024-03-05T11:00:27.154Z,42.167658296086294
2024-03-05T11:03:29.714Z,42.29115156469078
2024-03-05T11:06:27.277Z,40.67827001152254
2024-03-05T11:09:24.845Z,39.806967177847234
2024-03-05T11:12:24.378Z,39.778523043888114
2024-03-05T11:15:22.966Z,40.61726709779993
2024-03-05T11:18:30.010Z,40.34581735396782
2024-03-05T11:21:27.370Z,39.64283175462591
2024-03-05T11:24:32.572Z,39.97187440188387
2024-03-05T11:27:35.080Z,38.3124994568091
2024-03-05T11:30:42.628Z,40.30669260536428
2024-03-05T11:33:41.195Z,41.06162715642569
2024-03-05T11:37:01.670Z,40.187942247726866
2024-03-05T11:40:11.344Z,40.4606290153963
2024-03-05T11:43:07.769Z,38.87566594821459
2024-03-05T11:46:35.269Z,39.35338333336829
2024-03-05T11:49:35.833Z,36.07097715678571
2024-03-05T11:52:32.384Z,40.16322980781592
2024-03-05T11:55:33.014Z,41.46028019011703
2024-03-05T11:58:29.482Z,42.432359679378585
2024-03-05T12:01:33.097Z,37.30544027932035
2024-03-05T12:04:32.571Z,39.654167508788774
2024-03-05T12:07:30.136Z,37.98929434405168
2024-03-05T12:10:32.886Z,34.948836659831386
2024-03-05T12:13:33.227Z,32.967869239033924
2024-03-05T12:16:39.831Z,33.80600707800889
2024-03-05T12:19:41.477Z,34.10422564561363
2024-03-05T12:22:49.900Z,32.29028869177139
2024-03-05T12:25:48.463Z,31.809121431691228
2024-03-05T12:28:43.971Z,32.631619178500934
2024-03-05T12:31:42.464Z,36.22600624851358
2024-03-05T12:34:41.052Z,34.58627722042736
2024-03-05T12:37:40.592Z,31.968853016090954
2024-03-05T12:40:38.211Z,32.94235882029858
2024-03-05T12:43:50.717Z,32.09031543722887
2024-03-05T12:46:51.295Z,33.390518093509485
2024-03-05T12:49:48.902Z,33.03226690129679
2024-03-05T12:53:00.316Z,33.03545414039825
2024-03-05T12:56:02.008Z,30.012744839180883
2024-03-05T12:58:59.454Z,30.886125526296556
2024-03-05T13:01:57.140Z,31.277556127882093
2024-03-05T13:04:57.020Z,32.64862305078085
2024-03-05T13:07:59.817Z,36.26306851256047
2024-03-05T13:10:56.752Z,37.096645374623016
2024-03-05T13:13:57.197Z,38.90580511994263
2024-03-05T13:16:53.883Z,35.49854578876615
2024-03-05T13:19:49.307Z,36.58160759142673
2024-03-05T13:22:45.886Z,36.04921224912429
2024-03-05T13:25:48.361Z,34.33493787298551
2024-03-05T13:28:47.978Z,34.665876834945635
2024-03-05T13:31:45.512Z,35.1437715253459
2024-03-05T13:34:45.158Z,39.92449662875996
2024-03-05T13:37:48.815Z,36.4961108266911
2024-03-05T13:40:46.160Z,33.914891441780895
2024-03-05T13:43:45.768Z,31.67076528491783
2024-03-05T13:46:44.253Z,30.10933019554642
2024-03-05T13:49:41.837Z,29.827601049300156
2024-03-05T13:52:43.790Z,28.073693738164895
2024-03-05T13:55:42.989Z,30.12039658519373
2024-03-05T13:58:38.472Z,31.078661782461726
2024-03-05T14:01:36.102Z,31.618579954037195
2024-03-05T14:04:37.134Z,31.003278239873758
2024-03-05T14:07:37.136Z,32.29410266630524
2024-03-05T14:10:34.689Z,34.22566020469209
2024-03-05T14:13:39.227Z,37.69983731222046
2024-03-05T14:16:39.829Z,37.35270739810812
2024-03-05T14:19:37.362Z,36.239514155590264
2024-03-05T14:22:33.660Z,33.95583662051314
2024-03-05T14:25:30.805Z,36.79539692310606
2024-03-05T14:28:27.009Z,38.53979156012185
2024-03-05T14:31:24.315Z,37.795107639224796
2024-03-05T14:34:22.175Z,34.20645639177987
2024-03-05T14:37:19.655Z,34.16905484601058
2024-03-05T14:40:19.233Z,35.052395037510735
2024-03-05T14:43:17.800Z,37.354511441622115
2024-03-05T14:46:14.278Z,36.21066412094947
2024-03-05T14:49:11.895Z,33.51776383824724
2024-03-05T14:52:07.435Z,40.84348200146309
2024-03-05T14:58:49.829Z,37.22881206168048
2024-03-05T15:04:46.950Z,40.138895296971874
2024-03-05T15:07:44.267Z,38.113868858094975
2024-03-05T15:10:44.863Z,37.881241933217794
2024-03-05T15:13:40.234Z,38.159551369007154
2024-03-05T15:16:38.784Z,39.715870056668784
2024-03-05T15:19:35.348Z,38.58405178476813
2024-03-05T15:22:30.896Z,40.06642532678936
2024-03-05T15:25:31.530Z,39.29724309911421
2024-03-05T15:28:30.062Z,37.12470925884172
2024-03-05T15:31:25.564Z,37.91376466955716
2024-03-05T15:34:22.199Z,37.48367314066584
2024-03-05T15:37:23.672Z,41.54063374787216
2024-03-05T15:40:21.863Z,41.817571887160504
2024-03-05T15:43:19.776Z,44.31955753351422
2024-03-05T15:46:16.340Z,47.4686861229223
2024-03-05T15:49:15.889Z,48.90255516220731
2024-03-05T15:52:14.474Z,50.523523982372026
2024-03-05T15:55:11.995Z,54.5575994704431
2024-03-05T15:58:41.673Z,55.7183511246438
2024-03-05T16:05:13.681Z,56.19921656456906
2024-03-05T16:13:07.116Z,57.2222201862918
2024-03-05T16:16:10.635Z,56.139687966314554
2024-03-05T16:19:14.124Z,57.0863483360225
2024-03-05T16:22:13.722Z,56.048821042299124
2024-03-05T16:25:18.538Z,55.81164780479824
2024-03-05T16:28:22.815Z,55.36587362326259
2024-03-05T16:31:22.309Z,54.44772684048749
2024-03-05T16:34:25.894Z,54.70260738869666
2024-03-05T16:37:29.292Z,56.429565280811026
2024-03-05T16:40:26.968Z,57.90350436064789
2024-03-05T16:43:24.518Z,61.35532594088719
2024-03-05T16:46:21.083Z,64.09678293871183
2024-03-05T16:49:16.678Z,65.95417784547203
2024-03-05T16:52:17.848Z,68.00687669495281
2024-03-05T16:55:23.778Z,68.21464091574418
2024-03-05T16:58:29.535Z,68.09456105858801
2024-03-05T17:01:29.885Z,67.39165404023039
2024-03-05T17:04:29.363Z,67.11324418554439
2024-03-05T17:07:33.943Z,68.67163424864646
2024-03-05T17:10:35.377Z,66.75697503896889
2024-03-05T17:13:43.034Z,66.60460116979019
2024-03-05T17:19:49.181Z,66.61423318507725
2024-03-05T17:22:48.669Z,67.53344192717063
2024-03-05T17:25:46.204Z,64.92017131222734
2024-03-05T17:28:48.776Z,64.28509436816121
2024-03-05T17:34:58.870Z,64.37660010494086
2024-03-05T17:38:02.435Z,64.93840653377396
2024-03-05T17:41:00.842Z,64.61728879625468
2024-03-05T17:43:58.437Z,66.37078497691071
2024-03-05T17:46:57.032Z,66.95449866846562
2024-03-05T17:49:58.578Z,68.25696736419013
2024-03-05T17:53:00.081Z,69.31967090412742
2024-03-05T17:56:04.564Z,68.47182873398106
2024-03-05T17:59:03.218Z,68.01606312401111
2024-03-05T18:02:04.598Z,69.59086892236603
2024-03-05T18:05:07.346Z,71.48878837106295
2024-03-05T18:08:03.957Z,69.92561696742732
2024-03-05T18:11:07.432Z,68.03502541265588
2024-03-05T18:14:15.293Z,67.74212996715757
2024-03-05T18:17:17.447Z,67.97595105979475
2024-03-05T18:20:18.027Z,65.47342760355819
2024-03-05T18:23:18.545Z,64.51089087153302
2024-03-05T18:26:22.341Z,65.9949772574373
2024-03-05T18:29:19.669Z,67.23140202846358
2024-03-05T18:32:26.189Z,67.94865847762658
2024-03-05T18:35:32.738Z,68.69904707918309
2024-03-05T18:38:39.615Z,68.02143449529336
2024-03-05T18:41:43.620Z,66.5257718001738
2024-03-05T18:44:42.323Z,67.6209285158805
2024-03-05T18:47:54.393Z,69.56667912643269
2024-03-05T18:51:07.379Z,71.397033195936
2024-03-05T18:54:14.939Z,72.3642697618076
2024-03-05T18:57:20.214Z,70.79403549634884
2024-03-05T19:00:21.991Z,71.0360872226537
2024-03-05T19:03:26.553Z,71.87048796696743
2024-03-05T19:06:29.098Z,71.43230353142164
2024-03-05T19:09:30.645Z,69.98746749172498
2024-03-05T19:12:37.169Z,69.44377692537556
2024-03-05T19:15:37.697Z,71.46711971970865
2024-03-05T19:18:39.307Z,73.28699992913313
2024-03-05T19:21:37.794Z,73.13653870487438
2024-03-05T19:24:35.371Z,73.69791350563838
2024-03-05T19:27:41.904Z,71.93818912582434
2024-03-05T19:30:44.425Z,71.29575439899884
2024-03-05T19:33:46.481Z,71.77839759261495
2024-03-05T19:36:42.604Z,72.11567185922472
2024-03-05T19:39:45.088Z,70.48372354269627
2024-03-05T19:42:53.655Z,71.14120813229923
2024-03-05T19:45:58.944Z,72.96180339944029
2024-03-05T19:49:00.289Z,73.02475736537583
2024-03-05T19:52:02.494Z,73.38237833842777
2024-03-05T19:55:01.826Z,74.06418260989713
2024-03-05T19:58:08.583Z,71.84418281638116
2024-03-05T20:01:13.912Z,74.74410726054852
2024-03-05T20:04:16.429Z,75.29794388535674
2024-03-05T20:07:14.012Z,74.62268481230355
2024-03-05T20:10:10.523Z,77.7567007653357
2024-03-05T20:13:09.057Z,79.62909282628739
2024-03-05T20:16:15.164Z,82.35402141166539
2024-03-05T20:19:11.153Z,84.01404492216788
2024-03-05T20:22:15.889Z,85.07271105692062
2024-03-05T20:25:22.318Z,86.08763062885218
2024-03-05T20:28:18.794Z,86.30620305286456
2024-03-05T20:31:23.309Z,86.35065179829228
2024-03-05T20:34:21.922Z,87.30781394436211
2024-03-05T20:37:19.466Z,87.85835831662428
2024-03-05T20:40:17.036Z,89.96690209960819
2024-03-05T20:43:14.585Z,91.73838300553818
2024-03-05T20:46:34.094Z,93.67644297040648
2024-03-05T20:49:30.708Z,93.41282492994294
2024-03-05T20:52:27.260Z,90.9392258016985
2024-03-05T20:55:24.300Z,91.05269839241228
2024-03-05T20:58:31.297Z,88.79114433503523
2024-03-05T21:01:45.735Z,85.39002122356804
2024-03-05T21:04:53.377Z,85.31574471811707
2024-03-05T21:08:00.668Z,87.24520498598329
2024-03-05T21:11:04.238Z,88.77531582938464
2024-03-05T21:14:12.565Z,89.54952924278832
2024-03-05T21:17:12.518Z,90.51024956914095
2024-03-05T21:20:15.669Z,88.54384029309212
2024-03-05T21:23:18.666Z,89.88886801682276
2024-03-05T21:26:35.017Z,90.8560579935043
2024-03-05T21:29:33.631Z,90.7528400060919
2024-03-05T21:32:34.017Z,90.17419269834636
2024-03-05T21:35:32.817Z,90.75099270702951
2024-03-05T21:38:35.631Z,91.18038186975244
2024-03-05T21:41:30.789Z,92.65146180834091
2024-03-05T21:44:37.282Z,91.89060030922018
2024-03-05T21:47:43.902Z,89.92075148410845
2024-03-05T21:50:41.463Z,88.29050924026745
2024-03-05T21:53:38.632Z,88.0985366130842
2024-03-05T21:56:36.573Z,87.72203673687157
2024-03-05T21:59:35.110Z,89.521664692316
2024-03-05T22:02:31.684Z,91.01436440604927
2024-03-05T22:05:29.247Z,88.44027483973414
2024-03-05T22:08:25.811Z,89.75318542732157
2024-03-05T22:11:22.454Z,90.54271336448952
2024-03-05T22:14:18.955Z,89.87960311007214
2024-03-05T22:17:15.482Z,88.5493016598255
2024-03-05T22:20:14.098Z,92.84751626551285
2024-03-05T22:23:13.610Z,91.11405256681635
2024-03-05T22:26:17.128Z,91.47480142634925
2024-03-05T22:29:14.690Z,92.23671969707148
2024-03-05T22:32:10.394Z,90.60759643401443
2024-03-05T22:35:11.106Z,90.99907183126744
2024-03-05T22:38:08.441Z,92.20603306076032
2024-03-05T22:41:06.031Z,93.10987821993703
2024-03-05T22:44:02.479Z,94.20014277410804
2024-03-05T22:47:00.012Z,90.26601481731178
2024-03-05T22:49:55.603Z,90.72824366426252
2024-03-05T22:52:53.251Z,89.99964453308289
2024-03-05T22:55:49.713Z,89.63545277730205
2024-03-05T22:58:46.326Z,89.37968175930777
2024-03-05T23:01:42.853Z,89.58043425003248
2024-03-05T23:04:39.427Z,90.04686738220926
2024-03-05T23:07:34.907Z,89.90755394435594
2024-03-05T23:10:31.564Z,90.74119587124797
2024-03-05T23:13:27.055Z,92.23040437682022
2024-03-05T23:16:22.608Z,92.06782098764559
2024-03-05T23:19:24.173Z,91.44535255991748
2024-03-05T23:22:20.726Z,92.92994463202791
2024-03-05T23:25:17.276Z,92.39072311611547
2024-03-05T23:28:14.854Z,93.93750416530071
2024-03-05T23:31:11.407Z,94.26315932474125
2024-03-05T23:34:07.928Z,93.65142734478873
2024-03-05T23:37:05.558Z,91.76712948506236
2024-03-05T23:40:01.097Z,91.81942435030155
2024-03-05T23:42:57.609Z,93.87531501652262
2024-03-05T23:45:55.195Z,95.18675775435652
2024-03-05T23:48:50.828Z,94.13633574159414
2024-03-05T23:51:46.317Z,92.95710233860454
2024-03-05T23:54:42.866Z,92.56388509109333
2024-03-05T23:57:38.430Z,94.19656561424515
